If you wish to contribute or participate in the discussions about articles you are invited to join SKYbrary as a registered user

 Actions

Bata

From SKYbrary Wiki

FGBT
Airport
ICAO: FGBT
Summary
Name Bata
Region Africa
Territory Equatorial Guinea GQ.gif
Location Bata
Serving
Coordinates 1° 54' 19.00" N, 9° 48' 20.00" E
Runways
Designator Length Width Surface ROPS
4/22 2134 m7,001.312 ft
45 m147.638 ft
ASP /
5/23 0 m0 ft
0 m0 ft
UNK /


METAR
Observation FGBT 260900Z VRB02KT 9999 FEW010 31/23 Q1013
Station BATA (RIO MUNI)
Date/Time 26 March 2019 09:00:00
Wind direction °
Wind speed 02 kts
Lowest cloud amount few clouds
Temperature 31°C
Dew point 23°C
Humidity 62%
QNH 1013 hPa
Weather condition n/a

Bata Airport

ICAO: FGBT IATA: BSG

Description

Bata Airport is the second largest airport in Equatorial Guinea, after Malabo Airport, and is the only other paved runway.

Climatology

Maps

Terrain

Loading map...

Airport Layout

Loading map...


Accidents & Serious Incidents at or in vicinity of FGBT

None on SKYbrary